createdAt,value
2022-08-26T00:01:53.784Z,22.37
2022-08-26T00:04:22.581Z,22.37
2022-08-26T00:06:50.832Z,22.42
2022-08-26T00:09:18.773Z,22.39
2022-08-26T00:11:47.190Z,22.38
2022-08-26T00:14:16.196Z,22.36
2022-08-26T00:16:48.146Z,22.38
2022-08-26T00:19:17.196Z,22.38
2022-08-26T00:21:45.180Z,22.39
2022-08-26T00:24:12.867Z,22.38
2022-08-26T00:26:41.394Z,22.34
2022-08-26T00:29:09.504Z,22.26
2022-08-26T00:31:37.471Z,22.29
2022-08-26T00:34:07.100Z,22.28
2022-08-26T00:36:37.355Z,22.26
2022-08-26T00:39:07.136Z,22.21
2022-08-26T00:41:37.560Z,22.19
2022-08-26T00:44:05.427Z,22.17
2022-08-26T00:46:39.133Z,22.16
2022-08-26T00:49:18.216Z,22.12
2022-08-26T00:51:49.770Z,22.11
2022-08-26T00:54:19.020Z,22.10
2022-08-26T00:56:52.073Z,22.08
2022-08-26T00:59:21.082Z,21.96
2022-08-26T01:01:49.019Z,21.95
2022-08-26T01:04:22.218Z,21.96
2022-08-26T01:06:53.288Z,21.93
2022-08-26T01:09:23.450Z,21.89
2022-08-26T01:11:55.727Z,21.87
2022-08-26T01:14:27.083Z,21.85
2022-08-26T01:16:54.532Z,21.85
2022-08-26T01:19:29.287Z,21.85
2022-08-26T01:21:59.844Z,21.84
2022-08-26T01:24:30.341Z,21.80
2022-08-26T01:27:01.167Z,21.80
2022-08-26T01:29:31.110Z,21.80
2022-08-26T01:31:59.385Z,21.79
2022-08-26T01:34:30.181Z,21.80
2022-08-26T01:37:05.434Z,21.81
2022-08-26T01:39:36.367Z,21.82
2022-08-26T01:42:10.508Z,21.83
2022-08-26T01:44:50.340Z,21.82
2022-08-26T01:47:21.821Z,21.82
2022-08-26T01:49:53.673Z,21.83
2022-08-26T01:52:27.599Z,21.80
2022-08-26T01:54:59.510Z,21.82
2022-08-26T01:57:28.581Z,21.86
2022-08-26T02:00:01.488Z,21.84
2022-08-26T02:02:29.844Z,21.85
2022-08-26T02:05:00.400Z,21.88
2022-08-26T02:07:28.740Z,21.84
2022-08-26T02:09:57.944Z,21.84
2022-08-26T02:12:27.269Z,21.84
2022-08-26T02:15:00.330Z,21.85
2022-08-26T02:17:33.695Z,21.85
2022-08-26T02:20:03.922Z,21.84
2022-08-26T02:22:33.722Z,21.85
2022-08-26T02:25:12.225Z,21.85
2022-08-26T02:27:40.814Z,21.84
2022-08-26T02:30:12.973Z,21.82
2022-08-26T02:32:41.451Z,21.79
2022-08-26T02:35:12.862Z,21.74
2022-08-26T02:37:41.847Z,21.72
2022-08-26T02:40:14.833Z,21.69
2022-08-26T02:42:42.592Z,21.72
2022-08-26T02:45:11.062Z,21.70
2022-08-26T02:47:39.255Z,21.71
2022-08-26T02:50:07.780Z,21.72
2022-08-26T02:52:35.890Z,21.70
2022-08-26T02:55:06.037Z,21.66
2022-08-26T02:57:35.434Z,21.62
2022-08-26T03:00:05.828Z,21.63
2022-08-26T03:02:33.768Z,21.63
2022-08-26T03:05:02.090Z,21.62
2022-08-26T03:07:30.623Z,21.60
2022-08-26T03:09:58.691Z,21.59
2022-08-26T03:12:26.560Z,21.54
2022-08-26T03:14:55.791Z,21.54
2022-08-26T03:17:23.468Z,21.54
2022-08-26T03:19:54.767Z,21.54
2022-08-26T03:22:26.073Z,21.51
2022-08-26T03:24:54.894Z,21.45
2022-08-26T03:27:22.510Z,21.40
2022-08-26T03:29:50.498Z,21.41
2022-08-26T03:32:19.949Z,21.40
2022-08-26T03:34:47.764Z,21.38
2022-08-26T03:37:15.652Z,21.35
2022-08-26T03:39:43.578Z,21.31
2022-08-26T03:42:11.226Z,21.29
2022-08-26T03:44:41.949Z,21.36
2022-08-26T03:47:10.293Z,21.32
2022-08-26T03:49:39.782Z,21.27
2022-08-26T03:52:07.678Z,21.23
2022-08-26T03:54:35.300Z,21.24
2022-08-26T03:57:03.207Z,21.19
2022-08-26T03:59:31.169Z,21.19
2022-08-26T04:01:58.963Z,21.22
2022-08-26T04:04:26.826Z,21.23
2022-08-26T04:06:59.582Z,21.26
2022-08-26T04:09:28.038Z,21.28
2022-08-26T04:11:57.504Z,21.31
2022-08-26T04:14:27.385Z,21.36
2022-08-26T04:16:57.254Z,21.35
2022-08-26T04:19:25.676Z,21.27
2022-08-26T04:21:54.494Z,21.29
2022-08-26T04:24:25.964Z,21.33
2022-08-26T04:26:56.267Z,21.32
2022-08-26T04:29:26.426Z,21.32
2022-08-26T04:31:55.970Z,21.31
2022-08-26T04:34:24.662Z,21.29
2022-08-26T04:36:55.126Z,21.26
2022-08-26T04:39:25.335Z,21.33
2022-08-26T04:41:55.463Z,21.33
2022-08-26T04:44:24.940Z,21.36
2022-08-26T04:46:53.180Z,21.37
2022-08-26T04:49:21.292Z,21.38
2022-08-26T04:51:49.072Z,21.38
2022-08-26T04:54:17.784Z,21.42
2022-08-26T04:56:48.212Z,21.45
2022-08-26T04:59:18.200Z,21.45
2022-08-26T05:01:48.557Z,21.51
2022-08-26T05:04:18.947Z,21.52
2022-08-26T05:06:48.093Z,21.55
2022-08-26T05:09:16.047Z,21.58
2022-08-26T05:11:44.071Z,21.58
2022-08-26T05:14:18.428Z,21.59
2022-08-26T05:16:47.983Z,21.63
2022-08-26T05:19:19.125Z,21.67
2022-08-26T05:21:47.886Z,21.71
2022-08-26T05:24:16.673Z,21.74
2022-08-26T05:26:44.851Z,21.78
2022-08-26T05:29:12.984Z,21.79
2022-08-26T05:31:42.145Z,21.78
2022-08-26T05:34:09.812Z,21.82
2022-08-26T05:36:37.838Z,21.82
2022-08-26T05:39:06.709Z,21.85
2022-08-26T05:41:38.367Z,21.90
2022-08-26T05:44:09.016Z,21.91
2022-08-26T05:46:37.902Z,21.98
2022-08-26T05:49:12.475Z,21.99
2022-08-26T05:51:41.001Z,22.05
2022-08-26T05:54:10.379Z,22.08
2022-08-26T05:56:38.980Z,22.15
2022-08-26T05:59:14.631Z,22.21
2022-08-26T06:01:43.340Z,22.24
2022-08-26T06:04:12.516Z,22.30
2022-08-26T06:06:41.640Z,22.37
2022-08-26T06:09:11.067Z,22.41
2022-08-26T06:11:40.368Z,22.48
2022-08-26T06:14:09.347Z,22.55
2022-08-26T06:16:41.422Z,22.62
2022-08-26T06:19:11.798Z,22.72
2022-08-26T06:21:45.194Z,22.80
2022-08-26T06:24:14.092Z,22.90
2022-08-26T06:26:50.525Z,22.99
2022-08-26T06:29:24.439Z,23.17
2022-08-26T06:31:53.535Z,23.27
2022-08-26T06:34:21.784Z,23.37
2022-08-26T06:36:50.885Z,23.40
2022-08-26T06:39:21.348Z,23.43
2022-08-26T06:41:49.286Z,23.43
2022-08-26T06:44:18.212Z,23.45
2022-08-26T06:46:50.182Z,23.48
2022-08-26T06:49:27.019Z,23.50
2022-08-26T06:51:57.155Z,23.50
2022-08-26T06:54:26.660Z,23.48
2022-08-26T06:56:54.487Z,23.49
2022-08-26T06:59:22.124Z,23.51
2022-08-26T07:01:50.071Z,23.53
2022-08-26T07:04:21.765Z,23.55
2022-08-26T07:06:52.748Z,23.57
2022-08-26T07:09:26.434Z,23.61
2022-08-26T07:11:54.638Z,23.64
2022-08-26T07:14:23.081Z,23.70
2022-08-26T07:16:51.778Z,23.74
2022-08-26T07:19:30.066Z,23.78
2022-08-26T07:22:00.167Z,23.88
2022-08-26T07:24:29.496Z,23.93
2022-08-26T07:26:59.776Z,24.01
2022-08-26T07:29:27.592Z,24.07
2022-08-26T07:31:56.303Z,24.12
2022-08-26T07:34:24.582Z,24.20
2022-08-26T07:36:53.831Z,24.26
2022-08-26T07:39:23.709Z,24.37
2022-08-26T07:41:53.534Z,24.50
2022-08-26T07:44:21.439Z,24.65
2022-08-26T07:46:52.380Z,24.83
2022-08-26T07:49:22.428Z,25.04
2022-08-26T07:51:51.224Z,25.23
2022-08-26T07:54:19.254Z,25.40
2022-08-26T07:56:48.823Z,25.48
2022-08-26T07:59:19.114Z,25.60
2022-08-26T08:01:47.673Z,25.67
2022-08-26T08:04:17.951Z,25.72
2022-08-26T08:06:48.871Z,25.82
2022-08-26T08:09:17.550Z,25.93
2022-08-26T08:11:45.249Z,25.98
2022-08-26T08:14:13.529Z,26.07
2022-08-26T08:16:46.116Z,26.15
2022-08-26T08:19:15.514Z,26.22
2022-08-26T08:21:43.785Z,26.26
2022-08-26T08:24:12.008Z,26.19
2022-08-26T08:26:40.071Z,26.18
2022-08-26T08:29:08.352Z,26.17
2022-08-26T08:34:28.837Z,26.31
2022-08-26T08:36:57.032Z,26.29
2022-08-26T08:39:25.763Z,26.36
2022-08-26T08:42:30.513Z,26.36
2022-08-26T08:45:02.768Z,26.37
2022-08-26T08:47:35.104Z,26.40
2022-08-26T08:50:12.104Z,26.42
2022-08-26T08:52:43.133Z,26.48
2022-08-26T08:55:17.415Z,26.65
2022-08-26T08:58:02.255Z,26.69
2022-08-26T09:00:39.686Z,26.73
2022-08-26T09:03:24.435Z,26.76
2022-08-26T09:05:53.987Z,26.82
2022-08-26T09:08:26.742Z,26.95
2022-08-26T09:10:57.204Z,27.08
2022-08-26T09:13:27.197Z,27.11
2022-08-26T09:16:03.926Z,27.21
2022-08-26T09:18:50.895Z,27.21
2022-08-26T09:21:21.771Z,27.32
2022-08-26T09:23:52.910Z,27.42
2022-08-26T09:26:25.968Z,27.53
2022-08-26T09:28:58.903Z,27.62
2022-08-26T09:31:29.029Z,27.71
2022-08-26T09:34:12.486Z,27.83
2022-08-26T09:36:49.016Z,27.89
2022-08-26T09:39:29.812Z,28.03
2022-08-26T09:42:10.328Z,28.09
2022-08-26T09:44:59.176Z,28.27
2022-08-26T09:47:31.654Z,28.28
2022-08-26T09:50:03.832Z,28.30
2022-08-26T09:52:33.459Z,28.28
2022-08-26T09:55:07.285Z,28.35
2022-08-26T09:57:44.492Z,28.40
2022-08-26T10:00:34.763Z,28.37
2022-08-26T10:03:10.356Z,28.26
2022-08-26T10:05:44.869Z,28.24
2022-08-26T10:08:27.582Z,28.07
2022-08-26T10:10:57.870Z,28.10
2022-08-26T10:13:33.697Z,28.32
2022-08-26T10:16:13.766Z,28.43
2022-08-26T10:18:46.891Z,28.61
2022-08-26T10:21:24.804Z,28.75
2022-08-26T10:23:57.661Z,28.84
2022-08-26T10:26:30.617Z,28.97
2022-08-26T10:29:08.039Z,28.97
2022-08-26T10:31:41.347Z,29.06
2022-08-26T10:34:10.130Z,29.08
2022-08-26T10:37:07.085Z,29.13
2022-08-26T10:39:41.938Z,29.14
2022-08-26T10:42:17.714Z,29.17
2022-08-26T10:44:50.289Z,29.19
2022-08-26T10:47:24.379Z,29.36
2022-08-26T10:49:57.521Z,29.47
2022-08-26T10:52:37.689Z,29.56
2022-08-26T10:55:15.700Z,29.65
2022-08-26T10:57:54.753Z,29.73
2022-08-26T11:00:29.059Z,29.84
2022-08-26T11:03:06.590Z,29.94
2022-08-26T11:06:04.533Z,30.07
2022-08-26T11:08:32.624Z,30.15
2022-08-26T11:11:01.857Z,30.19
2022-08-26T11:14:01.422Z,30.14
2022-08-26T11:16:35.872Z,30.21
2022-08-26T11:19:13.029Z,30.28
2022-08-26T11:21:49.466Z,30.33
2022-08-26T11:24:57.858Z,30.47
2022-08-26T11:28:01.773Z,30.48
2022-08-26T11:30:39.207Z,30.41
2022-08-26T11:33:08.169Z,30.37
2022-08-26T11:35:54.197Z,30.36
2022-08-26T11:38:27.079Z,30.41
2022-08-26T11:41:08.472Z,30.42
2022-08-26T11:43:38.645Z,30.34
2022-08-26T11:46:10.684Z,30.37
2022-08-26T11:48:41.563Z,30.43
2022-08-26T11:51:11.772Z,30.46
2022-08-26T11:53:44.299Z,30.45
2022-08-26T11:56:22.282Z,30.44
2022-08-26T11:58:54.171Z,30.41
2022-08-26T12:01:29.054Z,30.33
2022-08-26T12:04:01.039Z,30.33
2022-08-26T12:06:34.048Z,30.24
2022-08-26T12:09:10.624Z,30.24
2022-08-26T12:11:39.857Z,30.21
2022-08-26T12:14:16.047Z,30.15
2022-08-26T12:16:45.172Z,30.11
2022-08-26T12:19:23.183Z,30.18
2022-08-26T12:21:58.718Z,30.28
2022-08-26T12:24:26.396Z,30.34
2022-08-26T12:27:11.784Z,30.37
2022-08-26T12:29:40.546Z,30.23
2022-08-26T12:32:13.492Z,30.30
2022-08-26T12:34:42.343Z,30.42
2022-08-26T12:37:12.044Z,30.46
2022-08-26T12:39:42.314Z,30.46
2022-08-26T12:42:23.716Z,30.44
2022-08-26T12:45:00.164Z,30.47
2022-08-26T12:47:42.935Z,30.48
2022-08-26T12:50:17.610Z,30.47
2022-08-26T12:52:54.305Z,30.57
2022-08-26T12:55:24.881Z,30.50
2022-08-26T12:58:11.699Z,30.46
2022-08-26T13:00:41.100Z,30.38
2022-08-26T13:03:47.428Z,30.35
2022-08-26T13:06:28.054Z,30.28
2022-08-26T13:08:58.540Z,30.28
2022-08-26T13:11:28.429Z,30.19
2022-08-26T13:13:59.563Z,30.09
2022-08-26T13:16:27.439Z,30.02
2022-08-26T13:18:57.936Z,29.95
2022-08-26T13:21:29.831Z,29.93
2022-08-26T13:24:08.153Z,29.90
2022-08-26T13:26:36.154Z,29.78
2022-08-26T13:29:08.353Z,29.83
2022-08-26T13:31:40.604Z,29.81
2022-08-26T13:34:08.607Z,29.78
2022-08-26T13:36:37.716Z,29.69
2022-08-26T13:39:06.565Z,29.65
2022-08-26T13:41:34.161Z,29.57
2022-08-26T13:44:02.398Z,29.38
2022-08-26T13:46:30.361Z,29.24
2022-08-26T13:48:58.326Z,29.08
2022-08-26T13:51:27.809Z,28.97
2022-08-26T13:53:57.496Z,28.86
2022-08-26T13:56:26.231Z,28.78
2022-08-26T13:58:53.879Z,28.73
2022-08-26T14:01:21.908Z,28.68
2022-08-26T14:03:50.015Z,28.56
2022-08-26T14:06:18.417Z,28.52
2022-08-26T14:08:46.596Z,28.49
2022-08-26T14:11:17.965Z,28.48
2022-08-26T14:13:45.671Z,28.45
2022-08-26T14:16:21.781Z,28.41
2022-08-26T14:18:50.863Z,28.45
2022-08-26T14:21:19.004Z,28.38
2022-08-26T14:23:46.870Z,28.42
2022-08-26T14:26:27.884Z,28.41
2022-08-26T14:28:59.084Z,28.36
2022-08-26T14:31:27.781Z,28.41
2022-08-26T14:33:57.577Z,28.43
2022-08-26T14:36:25.307Z,28.35
2022-08-26T14:38:53.462Z,28.27
2022-08-26T14:41:22.407Z,28.14
2022-08-26T14:43:54.519Z,28.04
2022-08-26T14:46:24.768Z,27.94
2022-08-26T14:48:52.410Z,27.85
2022-08-26T14:51:24.939Z,27.77
2022-08-26T14:53:52.929Z,27.73
2022-08-26T14:56:21.250Z,27.75
2022-08-26T14:58:49.140Z,27.77
2022-08-26T15:01:16.807Z,27.83
2022-08-26T15:03:46.088Z,27.77
2022-08-26T15:06:15.664Z,27.74
2022-08-26T15:08:43.443Z,27.70
2022-08-26T15:11:11.758Z,27.62
2022-08-26T15:13:39.588Z,27.54
2022-08-26T15:16:08.093Z,27.45
2022-08-26T15:18:36.077Z,27.38
2022-08-26T15:21:06.935Z,27.37
2022-08-26T15:23:35.489Z,27.37
2022-08-26T15:26:03.917Z,27.36
2022-08-26T15:28:32.379Z,27.38
2022-08-26T15:31:00.154Z,27.32
2022-08-26T15:33:27.868Z,27.31
2022-08-26T15:35:55.783Z,27.26
2022-08-26T15:38:24.874Z,27.23
2022-08-26T15:40:52.638Z,27.10
2022-08-26T15:43:28.641Z,27.10
2022-08-26T15:45:57.998Z,26.97
2022-08-26T15:48:26.052Z,27.00
2022-08-26T15:50:55.487Z,26.91
2022-08-26T15:53:24.950Z,26.85
2022-08-26T15:55:53.911Z,26.84
2022-08-26T15:58:21.785Z,26.80
2022-08-26T16:00:49.528Z,26.75
2022-08-26T16:03:17.731Z,26.71
2022-08-26T16:05:46.904Z,26.66
2022-08-26T16:08:15.282Z,26.68
2022-08-26T16:10:50.301Z,26.64
2022-08-26T16:13:20.091Z,26.52
2022-08-26T16:15:48.150Z,26.45
2022-08-26T16:18:16.615Z,26.33
2022-08-26T16:20:55.222Z,26.33
2022-08-26T16:23:37.651Z,26.29
2022-08-26T16:26:10.724Z,26.25
2022-08-26T16:28:38.999Z,26.23
2022-08-26T16:31:07.091Z,26.23
2022-08-26T16:33:34.886Z,26.23
2022-08-26T16:36:03.273Z,26.18
2022-08-26T16:38:31.953Z,26.15
2022-08-26T16:41:00.642Z,26.17
2022-08-26T16:43:29.669Z,26.19
2022-08-26T16:45:57.844Z,26.19
2022-08-26T16:48:25.746Z,26.15
2022-08-26T16:50:53.379Z,26.10
2022-08-26T16:53:21.324Z,26.07
2022-08-26T16:55:49.745Z,26.04
2022-08-26T16:58:18.429Z,26.01
2022-08-26T17:00:47.446Z,25.93
2022-08-26T17:03:15.266Z,25.86
2022-08-26T17:05:46.777Z,25.83
2022-08-26T17:08:27.499Z,25.74
2022-08-26T17:10:59.239Z,25.65
2022-08-26T17:13:35.923Z,25.60
2022-08-26T17:16:07.801Z,25.59
2022-08-26T17:18:37.307Z,25.55
2022-08-26T17:21:07.526Z,25.49
2022-08-26T17:23:35.412Z,25.44
2022-08-26T17:26:03.773Z,25.43
2022-08-26T17:28:31.396Z,25.39
2022-08-26T17:30:59.882Z,25.35
2022-08-26T17:33:29.789Z,25.27
2022-08-26T17:35:57.630Z,25.26
2022-08-26T17:38:26.103Z,25.22
2022-08-26T17:40:54.243Z,25.18
2022-08-26T17:43:22.256Z,25.13
2022-08-26T17:45:50.240Z,25.10
2022-08-26T17:48:17.942Z,25.09
2022-08-26T17:50:49.591Z,25.01
2022-08-26T17:53:19.018Z,24.99
2022-08-26T17:55:47.037Z,24.98
2022-08-26T17:58:15.247Z,24.94
2022-08-26T18:00:45.150Z,24.93
2022-08-26T18:03:13.184Z,24.94
2022-08-26T18:05:42.336Z,24.89
2022-08-26T18:08:11.513Z,24.82
2022-08-26T18:10:41.295Z,24.80
2022-08-26T18:13:09.027Z,24.76
2022-08-26T18:15:40.370Z,24.71
2022-08-26T18:18:08.345Z,24.65
2022-08-26T18:20:38.334Z,24.64
2022-08-26T18:23:06.510Z,24.61
2022-08-26T18:25:39.258Z,24.63
2022-08-26T18:28:07.026Z,24.61
2022-08-26T18:30:35.213Z,24.59
2022-08-26T18:33:03.242Z,24.59
2022-08-26T18:35:31.160Z,24.59
2022-08-26T18:38:10.670Z,24.52
2022-08-26T18:40:42.522Z,24.55
2022-08-26T18:43:10.280Z,24.51
2022-08-26T18:45:38.170Z,24.49
2022-08-26T18:48:09.837Z,24.47
2022-08-26T18:50:39.148Z,24.46
2022-08-26T18:53:06.912Z,24.43
2022-08-26T18:55:35.227Z,24.39
2022-08-26T18:58:04.257Z,24.37
2022-08-26T19:00:33.608Z,24.36
2022-08-26T19:03:02.111Z,24.32
2022-08-26T19:05:30.099Z,24.26
2022-08-26T19:07:57.739Z,24.20
2022-08-26T19:10:25.408Z,24.18
2022-08-26T19:12:56.332Z,24.11
2022-08-26T19:15:28.205Z,24.08
2022-08-26T19:17:56.135Z,24.04
2022-08-26T19:20:23.826Z,24.01
2022-08-26T19:22:51.764Z,23.95
2022-08-26T19:25:19.624Z,23.93
2022-08-26T19:27:47.710Z,23.88
2022-08-26T19:30:15.840Z,23.86
2022-08-26T19:32:46.488Z,23.81
2022-08-26T19:35:14.309Z,23.78
2022-08-26T19:37:42.101Z,23.78
2022-08-26T19:40:10.549Z,23.72
2022-08-26T19:42:38.251Z,23.69
2022-08-26T19:45:07.251Z,23.64
2022-08-26T19:47:39.859Z,23.56
2022-08-26T19:50:12.034Z,23.52
2022-08-26T19:52:40.093Z,23.54
2022-08-26T19:55:09.409Z,23.53
2022-08-26T19:57:37.931Z,23.53
2022-08-26T20:00:09.185Z,23.58
2022-08-26T20:02:39.804Z,23.57
2022-08-26T20:05:11.488Z,23.58
2022-08-26T20:07:41.142Z,23.53
2022-08-26T20:10:11.980Z,23.55
2022-08-26T20:12:40.777Z,23.53
2022-08-26T20:15:09.571Z,23.47
2022-08-26T20:17:40.163Z,23.42
2022-08-26T20:20:26.929Z,23.40
2022-08-26T20:22:59.110Z,23.39
2022-08-26T20:25:26.894Z,23.34
2022-08-26T20:27:54.492Z,23.32
2022-08-26T20:30:22.494Z,23.32
2022-08-26T20:32:50.846Z,23.30
2022-08-26T20:35:20.255Z,23.25
2022-08-26T20:37:48.026Z,23.22
2022-08-26T20:40:15.799Z,23.21
2022-08-26T20:42:43.494Z,23.20
2022-08-26T20:45:11.418Z,23.16
2022-08-26T20:47:39.547Z,23.14
2022-08-26T20:50:07.936Z,23.09
2022-08-26T20:52:37.263Z,23.09
2022-08-26T20:55:05.961Z,23.03
2022-08-26T20:57:33.761Z,23.03
2022-08-26T21:00:01.461Z,23.02
2022-08-26T21:02:30.430Z,23.00
2022-08-26T21:04:58.203Z,22.99
2022-08-26T21:07:26.216Z,22.96
2022-08-26T21:09:55.849Z,22.91
2022-08-26T21:12:23.717Z,22.85
2022-08-26T21:14:51.369Z,22.85
2022-08-26T21:17:19.126Z,22.82
2022-08-26T21:19:46.823Z,22.78
2022-08-26T21:22:14.458Z,22.76
2022-08-26T21:24:42.623Z,22.74
2022-08-26T21:27:11.807Z,22.70
2022-08-26T21:29:39.530Z,22.70
2022-08-26T21:32:07.551Z,22.57
2022-08-26T21:34:36.143Z,22.37
2022-08-26T21:37:06.016Z,22.12
2022-08-26T21:39:41.077Z,22.08
2022-08-26T21:42:08.836Z,22.02
2022-08-26T21:44:37.926Z,22.02
2022-08-26T21:47:06.146Z,22.01
2022-08-26T21:49:33.778Z,22.01
2022-08-26T21:52:01.494Z,21.94
2022-08-26T21:54:29.564Z,21.99
2022-08-26T21:56:57.735Z,22.02
2022-08-26T21:59:25.398Z,22.04
2022-08-26T22:01:55.003Z,22.08
2022-08-26T22:04:23.399Z,22.10
2022-08-26T22:06:53.398Z,22.04
2022-08-26T22:09:24.833Z,21.99
2022-08-26T22:11:53.769Z,22.06
2022-08-26T22:14:21.661Z,21.90
2022-08-26T22:16:50.629Z,21.67
2022-08-26T22:19:23.428Z,21.10
2022-08-26T22:21:53.369Z,20.58
2022-08-26T22:24:23.218Z,20.27
2022-08-26T22:26:51.166Z,20.04
2022-08-26T22:29:19.276Z,19.83
2022-08-26T22:31:47.027Z,19.49
2022-08-26T22:34:16.185Z,19.28
2022-08-26T22:36:47.987Z,19.19
2022-08-26T22:39:17.750Z,19.22
2022-08-26T22:41:46.147Z,19.26
2022-08-26T22:44:15.189Z,19.22
2022-08-26T22:46:43.954Z,19.17
2022-08-26T22:49:13.981Z,19.16
2022-08-26T22:51:41.947Z,19.19
2022-08-26T22:54:11.774Z,19.17
2022-08-26T22:56:40.093Z,19.25
2022-08-26T22:59:08.343Z,19.38
2022-08-26T23:01:37.168Z,19.32
2022-08-26T23:04:06.567Z,19.28
2022-08-26T23:06:36.318Z,19.26
2022-08-26T23:09:05.697Z,19.25
2022-08-26T23:11:35.383Z,19.26
2022-08-26T23:14:06.371Z,19.30
2022-08-26T23:16:37.849Z,19.27
2022-08-26T23:19:08.410Z,19.25
2022-08-26T23:21:36.165Z,19.26
2022-08-26T23:24:04.506Z,19.24
2022-08-26T23:26:32.361Z,19.24
2022-08-26T23:29:01.429Z,19.20
2022-08-26T23:31:29.272Z,19.17
2022-08-26T23:33:57.177Z,19.17
2022-08-26T23:36:26.080Z,19.17
2022-08-26T23:38:54.128Z,19.17
2022-08-26T23:41:22.409Z,19.18
2022-08-26T23:43:50.653Z,19.17
2022-08-26T23:46:20.266Z,19.13
2022-08-26T23:48:48.183Z,19.15
2022-08-26T23:51:16.175Z,19.17
2022-08-26T23:53:43.812Z,19.10
2022-08-26T23:56:14.302Z,19.08
2022-08-26T23:58:42.275Z,19.10
